Time;durP1;ratioP1;P1;durP2;ratioP2;P2;SDS_P1;SDS_P2;PMS_P1;PMS_P2;Temp;Humidity;BMP_temperature;BMP_pressure;BME280_temperature;BME280_humidity;BME280_pressure;Samples;Min_cycle;Max_cycle;Signal;HPM_P1;HPM_P2
2022/09/13 00:01:33;;;;;;;9.32;4.15;;;;;;;23.10;60.62;100392.41;4995575;28;20058;-66
2022/09/13 00:04:00;;;;;;;8.18;4.22;;;;;;;23.20;60.66;100388.78;4997923;28;20057;-66
2022/09/13 00:06:27;;;;;;;9.82;4.05;;;;;;;23.29;60.18;100391.19;4995435;28;20053;-66
2022/09/13 00:08:55;;;;;;;11.80;4.20;;;;;;;23.32;60.42;100399.63;4998705;28;20054;-66
2022/09/13 00:11:27;;;;;;;9.82;4.40;;;;;;;23.30;60.37;100396.41;4997821;28;20042;-66
2022/09/13 00:13:56;;;;;;;10.02;4.47;;;;;;;23.17;61.28;100402.84;4978650;28;20417;-65
2022/09/13 00:16:25;;;;;;;15.25;4.25;;;;;;;22.93;61.81;100406.50;5006956;28;20054;-67
2022/09/13 00:18:53;;;;;;;8.77;4.10;;;;;;;22.94;62.18;100411.75;4997843;28;20054;-66
2022/09/13 00:21:22;;;;;;;11.93;4.68;;;;;;;23.37;60.49;100410.44;4997830;28;20394;-66
2022/09/13 00:23:51;;;;;;;11.65;4.40;;;;;;;23.17;61.34;100408.47;4997873;28;20060;-66
2022/09/13 00:26:26;;;;;;;8.88;4.22;;;;;;;23.15;61.30;100394.03;4997360;28;20042;-67
2022/09/13 00:28:55;;;;;;;11.20;4.35;;;;;;;23.15;61.17;100396.84;4983607;28;20058;-65
2022/09/13 00:31:25;;;;;;;7.72;3.63;;;;;;;23.09;61.70;100392.81;5028529;28;20042;-67
2022/09/13 00:33:52;;;;;;;9.82;4.13;;;;;;;23.11;61.55;100393.22;4997652;28;20065;-66
2022/09/13 00:36:20;;;;;;;9.05;4.22;;;;;;;23.03;61.88;100384.00;4997208;28;20050;-65
2022/09/13 00:38:47;;;;;;;10.43;4.30;;;;;;;23.05;61.87;100366.72;4996476;28;20410;-66
2022/09/13 00:41:18;;;;;;;9.93;3.75;;;;;;;23.10;61.91;100366.34;4997273;28;20497;-66
2022/09/13 00:43:53;;;;;;;8.43;3.75;;;;;;;22.90;60.84;100368.81;4996402;28;20055;-66
2022/09/13 00:46:41;;;;;;;12.70;3.78;;;;;;;22.61;60.07;100363.63;4998200;28;20057;-66
2022/09/13 00:49:18;;;;;;;9.52;3.88;;;;;;;22.69;60.51;100365.22;4978167;28;20047;-66
2022/09/13 00:51:49;;;;;;;8.60;3.65;;;;;;;22.84;59.92;100366.81;4990283;28;20034;-66
2022/09/13 00:54:18;;;;;;;9.40;3.90;;;;;;;22.86;59.15;100367.19;4993089;28;20054;-66
2022/09/13 00:56:49;;;;;;;7.57;3.50;;;;;;;22.90;59.69;100371.59;4990528;28;20532;-66
2022/09/13 00:59:30;;;;;;;10.27;3.95;;;;;;;22.96;60.29;100367.16;4995555;28;20057;-65
2022/09/13 01:01:57;;;;;;;8.73;3.83;;;;;;;22.80;61.08;100366.81;4995702;28;20077;-66
2022/09/13 01:04:26;;;;;;;9.63;3.45;;;;;;;22.90;61.23;100365.19;4995320;28;20049;-66
2022/09/13 01:06:58;;;;;;;11.00;3.80;;;;;;;22.84;61.32;100367.59;4995246;28;20061;-66
2022/09/13 01:09:26;;;;;;;8.63;3.45;;;;;;;22.68;62.32;100356.00;4996232;28;20053;-66
2022/09/13 01:12:03;;;;;;;10.95;3.70;;;;;;;22.80;61.98;100346.34;4995589;28;20042;-66
2022/09/13 01:14:31;;;;;;;10.05;4.30;;;;;;;22.90;62.12;100343.53;4996212;28;20139;-66
2022/09/13 01:16:59;;;;;;;11.80;4.03;;;;;;;23.02;61.05;100331.03;4995717;28;20065;-66
2022/09/13 01:19:26;;;;;;;11.52;3.90;;;;;;;23.03;61.10;100335.47;4995441;28;20078;-66
2022/09/13 01:22:37;;;;;;;10.27;4.10;;;;;;;22.86;61.65;100337.09;4995824;28;20034;-66
2022/09/13 01:25:38;;;;;;;9.35;3.80;;;;;;;23.07;61.47;100337.03;4919850;29;20063;-65
2022/09/13 01:28:34;;;;;;;8.35;4.15;;;;;;;22.86;62.14;100341.91;4949935;29;20062;-66
2022/09/13 01:31:19;;;;;;;11.18;4.32;;;;;;;23.00;61.90;100333.44;4988831;28;20061;-65
2022/09/13 01:33:59;;;;;;;9.75;4.13;;;;;;;22.88;62.41;100334.69;4980525;28;20062;-66
2022/09/13 01:36:44;;;;;;;10.50;3.75;;;;;;;22.75;63.07;100341.16;4991385;28;20491;-65
2022/09/13 01:39:42;;;;;;;8.25;3.92;;;;;;;22.74;63.12;100334.72;4977348;28;20065;-66
2022/09/13 01:42:23;;;;;;;8.32;4.30;;;;;;;22.75;63.19;100327.88;4990580;28;20058;-65
2022/09/13 01:45:15;;;;;;;7.68;3.90;;;;;;;22.58;64.01;100327.94;4996588;28;20049;-68
2022/09/13 01:48:25;;;;;;;8.50;4.15;;;;;;;22.67;63.80;100322.69;4997249;28;20050;-66
2022/09/13 01:51:31;;;;;;;7.72;3.45;;;;;;;22.61;63.98;100319.53;4987347;28;20138;-65
2022/09/13 01:54:04;;;;;;;13.68;3.53;;;;;;;22.53;64.04;100320.69;4987825;28;20054;-66
2022/09/13 01:56:36;;;;;;;11.98;4.25;;;;;;;22.61;64.11;100318.72;4996191;28;20057;-66
2022/09/13 01:59:10;;;;;;;11.82;4.10;;;;;;;22.62;64.18;100318.31;4977234;28;20059;-66
2022/09/13 02:02:07;;;;;;;7.45;3.83;;;;;;;22.61;63.93;100305.50;4987466;28;20046;-66
2022/09/13 02:04:39;;;;;;;14.40;4.13;;;;;;;22.57;64.20;100312.28;4992586;28;20058;-66
2022/09/13 02:07:17;;;;;;;9.02;4.03;;;;;;;22.58;64.34;100308.31;4992644;28;20054;-66
2022/09/13 02:09:47;;;;;;;8.25;4.32;;;;;;;22.66;64.06;100302.25;4994511;28;20062;-66
2022/09/13 02:12:18;;;;;;;10.65;4.15;;;;;;;22.66;64.22;100305.06;4991511;28;20049;-66
2022/09/13 02:14:57;;;;;;;8.77;3.97;;;;;;;22.62;64.36;100304.28;4994789;28;20513;-66
2022/09/13 02:17:27;;;;;;;7.15;3.50;;;;;;;22.68;63.95;100296.25;4993219;28;20421;-66
2022/09/13 02:20:01;;;;;;;;;;;;;;;22.34;63.97;100293.06;4994332;28;20078;-66
2022/09/13 02:22:32;;;;;;;9.90;5.55;;;;;;;22.43;64.35;100303.88;5025347;28;19921;-67
2022/09/13 02:25:06;;;;;;;18.02;5.70;;;;;;;22.47;64.16;100296.25;4993555;28;20189;-69
2022/09/13 02:27:34;;;;;;;9.50;4.30;;;;;;;22.42;64.38;100291.06;4995705;28;20061;-66
2022/09/13 02:30:10;;;;;;;9.25;4.88;;;;;;;22.52;63.30;100293.84;4994613;28;20050;-67
2022/09/13 02:32:41;;;;;;;13.05;4.95;;;;;;;22.51;62.96;100299.88;4993541;28;20126;-68
2022/09/13 02:35:11;;;;;;;12.60;5.30;;;;;;;22.43;62.65;100290.63;4994833;28;20038;-67
2022/09/13 02:37:41;;;;;;;10.55;4.80;;;;;;;22.30;62.60;100281.84;4995448;28;20051;-67
2022/09/13 02:40:13;;;;;;;8.63;4.20;;;;;;;22.16;61.87;100279.03;4995873;28;20049;-66
2022/09/13 02:42:51;;;;;;;11.48;5.20;;;;;;;22.19;63.45;100286.66;4994350;28;20073;-67
2022/09/13 02:45:20;;;;;;;11.07;4.40;;;;;;;22.27;62.46;100285.44;4993386;28;20050;-66
2022/09/13 02:47:58;;;;;;;14.77;4.88;;;;;;;22.51;62.30;100277.41;4994687;28;20061;-66
2022/09/13 02:50:53;;;;;;;9.85;4.32;;;;;;;22.54;61.49;100274.63;4994421;28;20054;-66
2022/09/13 02:53:40;;;;;;;10.10;4.22;;;;;;;22.54;61.63;100271.81;4994811;28;20049;-66
2022/09/13 02:56:11;;;;;;;7.78;4.43;;;;;;;22.64;61.71;100270.16;4995174;28;20042;-67
2022/09/13 02:59:13;;;;;;;10.75;4.60;;;;;;;22.57;61.26;100276.63;4994511;28;20050;-69
2022/09/13 03:01:45;;;;;;;11.07;3.92;;;;;;;22.70;61.45;100276.97;4995185;28;20051;-66
2022/09/13 03:04:13;;;;;;;10.90;4.00;;;;;;;22.67;60.99;100277.78;4978755;28;20057;-67
2022/09/13 03:06:41;;;;;;;7.35;3.50;;;;;;;22.61;61.34;100269.00;4995509;28;20046;-66
2022/09/13 03:09:08;;;;;;;10.20;4.20;;;;;;;22.57;62.24;100261.75;4994467;28;20054;-66
2022/09/13 03:12:02;;;;;;;13.13;4.68;;;;;;;22.61;62.98;100265.38;4995663;28;20431;-66
2022/09/13 03:14:38;;;;;;;11.68;4.03;;;;;;;22.63;63.16;100268.59;4994511;28;20541;-66
2022/09/13 03:17:29;;;;;;;8.95;4.13;;;;;;;22.68;63.20;100265.34;4998372;28;20057;-65
2022/09/13 03:20:18;;;;;;;10.18;3.83;;;;;;;22.59;63.78;100265.78;4999393;28;20062;-67
2022/09/13 03:22:47;;;;;;;9.23;4.10;;;;;;;22.28;65.07;100258.19;4982194;28;20051;-67
2022/09/13 03:25:39;;;;;;;11.85;4.43;;;;;;;22.26;65.53;100255.00;4999374;28;20105;-67
2022/09/13 03:28:37;;;;;;;12.02;4.15;;;;;;;22.23;65.96;100267.81;4997923;28;20062;-67
2022/09/13 03:31:46;;;;;;;9.40;3.90;;;;;;;22.04;66.50;100264.63;4997850;28;20057;-67
2022/09/13 03:34:22;;;;;;;8.07;3.87;;;;;;;22.12;66.80;100267.00;4985499;28;20517;-67
2022/09/13 03:36:57;;;;;;;8.70;3.72;;;;;;;22.00;67.12;100272.25;4997538;28;20061;-67
2022/09/13 03:39:44;;;;;;;12.18;4.32;;;;;;;22.02;67.34;100273.44;4981630;28;20497;-66
2022/09/13 03:42:23;;;;;;;9.73;4.50;;;;;;;22.08;67.17;100280.25;4998727;28;20134;-66
2022/09/13 03:44:51;;;;;;;10.65;4.00;;;;;;;22.24;66.57;100285.47;4981717;28;20050;-66
2022/09/13 03:47:20;;;;;;;9.43;4.35;;;;;;;22.07;67.19;100289.84;4976767;28;20057;-66
2022/09/13 03:49:49;;;;;;;7.53;4.07;;;;;;;22.13;67.40;100285.47;4978399;28;20088;-66
2022/09/13 03:52:17;;;;;;;8.68;4.22;;;;;;;22.16;67.03;100279.03;4994667;28;20061;-65
2022/09/13 03:54:44;;;;;;;7.45;3.85;;;;;;;22.13;67.09;100271.44;4997354;28;20675;-67
2022/09/13 03:57:17;;;;;;;9.23;4.18;;;;;;;22.12;66.87;100267.00;4996992;28;20054;-67
2022/09/13 03:59:45;;;;;;;7.78;3.80;;;;;;;22.02;67.56;100278.25;4997975;28;20050;-67
2022/09/13 04:02:13;;;;;;;10.55;4.15;;;;;;;22.17;67.13;100272.25;4998376;28;20621;-66
2022/09/13 04:04:42;;;;;;;10.32;4.20;;;;;;;22.13;67.05;100287.47;4998364;28;20053;-66
2022/09/13 04:07:11;;;;;;;12.10;4.55;;;;;;;22.24;66.94;100283.47;4996079;28;20054;-67
2022/09/13 04:09:38;;;;;;;6.55;3.60;;;;;;;22.21;67.02;100289.84;5008378;28;20457;-67
2022/09/13 04:12:08;;;;;;;7.25;4.00;;;;;;;22.16;67.21;100272.63;4996463;28;20054;-67
2022/09/13 04:14:36;;;;;;;13.55;4.20;;;;;;;22.22;66.93;100268.22;5011721;28;20371;-67
2022/09/13 04:17:03;;;;;;;9.13;3.92;;;;;;;22.19;67.13;100261.41;4996833;28;20060;-66
2022/09/13 04:19:30;;;;;;;9.73;3.65;;;;;;;22.20;66.94;100263.00;4998674;28;20471;-67
2022/09/13 04:21:58;;;;;;;8.60;3.60;;;;;;;22.27;66.82;100267.81;4997751;28;20411;-66
2022/09/13 04:24:27;;;;;;;10.70;4.35;;;;;;;22.41;66.54;100278.19;4997392;28;20057;-67
2022/09/13 04:26:55;;;;;;;7.00;3.72;;;;;;;22.33;67.08;100286.63;4996793;28;20054;-66
2022/09/13 04:29:24;;;;;;;8.50;4.00;;;;;;;22.38;66.72;100287.44;4997299;28;20046;-67
2022/09/13 04:31:52;;;;;;;12.52;4.03;;;;;;;22.27;67.11;100274.22;4997425;28;20418;-67
2022/09/13 04:34:23;;;;;;;9.30;3.90;;;;;;;22.21;67.31;100267.41;4997826;28;20062;-67
2022/09/13 04:36:51;;;;;;;9.90;4.05;;;;;;;22.09;67.89;100262.22;4995704;28;20054;-67
2022/09/13 04:39:20;;;;;;;8.52;3.85;;;;;;;22.21;67.50;100280.66;4997988;28;20454;-66
2022/09/13 04:41:48;;;;;;;8.73;3.70;;;;;;;22.17;67.37;100283.47;4996412;28;20061;-66
2022/09/13 04:44:16;;;;;;;9.32;3.75;;;;;;;21.94;67.33;100280.25;4996667;28;20134;-67
2022/09/13 04:46:46;;;;;;;8.45;4.22;;;;;;;21.90;68.04;100281.44;4997594;28;20063;-66
2022/09/13 04:49:15;;;;;;;9.77;4.05;;;;;;;21.66;68.40;100291.41;4997940;28;20137;-67
2022/09/13 04:51:43;;;;;;;9.50;3.30;;;;;;;21.97;67.78;100299.06;4995908;28;20057;-66
2022/09/13 04:54:12;;;;;;;16.52;3.70;;;;;;;22.03;67.39;100285.47;4995974;28;20062;-66
2022/09/13 04:56:43;;;;;;;10.35;3.85;;;;;;;22.06;67.50;100293.88;4996129;28;20054;-66
2022/09/13 04:59:10;;;;;;;9.13;3.45;;;;;;;22.07;66.54;100298.28;4997309;28;20050;-67
2022/09/13 05:01:38;;;;;;;10.07;3.70;;;;;;;22.19;66.41;100288.66;4997098;28;20371;-67
2022/09/13 05:04:06;;;;;;;10.23;3.72;;;;;;;21.88;66.40;100286.66;4997448;28;20045;-67
2022/09/13 05:06:34;;;;;;;9.35;3.00;;;;;;;21.93;66.67;100275.06;4996724;28;20054;-67
2022/09/13 05:09:02;;;;;;;10.05;3.25;;;;;;;21.72;66.39;100281.41;4996319;28;20054;-67
2022/09/13 05:11:30;;;;;;;11.20;3.13;;;;;;;21.29;66.40;100281.72;4996742;28;20383;-67
2022/09/13 05:13:59;;;;;;;6.05;2.85;;;;;;;20.72;67.69;100300.25;4996067;28;20057;-67
2022/09/13 05:16:28;;;;;;;7.75;2.38;;;;;;;20.82;67.84;100330.28;4995606;28;20046;-67
2022/09/13 05:18:56;;;;;;;7.95;2.35;;;;;;;21.17;67.54;100334.09;4997310;28;20054;-67
2022/09/13 05:21:24;;;;;;;10.82;3.30;;;;;;;20.92;69.11;100324.75;4978826;28;20058;-67
2022/09/13 05:23:52;;;;;;;6.15;3.00;;;;;;;20.80;69.56;100304.69;4963460;28;20046;-67
2022/09/13 05:26:22;;;;;;;10.70;3.45;;;;;;;20.87;69.85;100297.13;4961615;28;20062;-67
2022/09/13 05:28:49;;;;;;;9.50;3.38;;;;;;;21.05;70.18;100302.84;5011851;28;20054;-67
2022/09/13 05:31:19;;;;;;;7.15;2.90;;;;;;;20.89;69.96;100308.72;4994643;28;20054;-67
2022/09/13 05:33:52;;;;;;;6.85;2.88;;;;;;;20.57;71.15;100292.97;4996992;28;20506;-67
2022/09/13 05:36:19;;;;;;;6.00;2.90;;;;;;;20.59;71.19;100290.59;4996539;28;20061;-68
2022/09/13 05:38:46;;;;;;;9.95;2.90;;;;;;;20.84;69.82;100294.31;4995688;28;20043;-69
2022/09/13 05:41:14;;;;;;;10.02;3.40;;;;;;;20.38;71.82;100304.44;4996415;28;20046;-67
2022/09/13 05:43:41;;;;;;;11.32;3.10;;;;;;;20.61;72.15;100302.97;4995511;28;20051;-67
2022/09/13 05:46:17;;;;;;;10.70;3.38;;;;;;;20.52;71.62;100310.13;4993902;28;20050;-67
2022/09/13 05:48:44;;;;;;;10.63;3.53;;;;;;;20.84;71.16;100314.72;4995389;28;20050;-67
2022/09/13 05:51:20;;;;;;;8.13;3.80;;;;;;;20.94;69.99;100307.53;4994812;28;20054;-68
2022/09/13 05:53:49;;;;;;;7.07;3.28;;;;;;;20.77;70.33;100302.66;4990659;28;20050;-68
2022/09/13 05:56:19;;;;;;;7.60;2.90;;;;;;;20.89;69.39;100293.94;4990186;28;20050;-69
2022/09/13 05:58:47;;;;;;;8.90;3.03;;;;;;;20.96;69.16;100293.97;4979140;28;20050;-68
2022/09/13 06:01:17;;;;;;;9.70;4.03;;;;;;;20.99;69.32;100296.03;4996232;28;20061;-68
2022/09/13 06:03:49;;;;;;;13.32;3.15;;;;;;;21.19;68.60;100294.50;4993790;28;20414;-68
2022/09/13 06:06:17;;;;;;;12.40;3.33;;;;;;;21.07;68.58;100292.84;4978407;28;20054;-68
2022/09/13 06:08:45;;;;;;;8.25;2.88;;;;;;;21.33;68.37;100296.53;4991755;28;20057;-68
2022/09/13 06:11:13;;;;;;;13.10;3.33;;;;;;;21.21;68.82;100286.50;4992551;28;20050;-68
2022/09/13 06:13:42;;;;;;;9.38;3.53;;;;;;;21.44;70.95;100281.38;5001045;28;20612;-68
2022/09/13 06:16:11;;;;;;;12.60;3.60;;;;;;;21.44;72.79;100270.16;4996463;28;20046;-68
2022/09/13 06:18:39;;;;;;;9.05;4.18;;;;;;;21.69;72.65;100275.81;4980181;28;20131;-69
2022/09/13 06:21:08;;;;;;;17.60;3.03;;;;;;;21.49;71.05;100283.78;5023960;28;20050;-68
2022/09/13 06:23:36;;;;;;;10.10;3.63;;;;;;;21.03;70.57;100271.63;4986736;28;20049;-66
2022/09/13 06:26:09;;;;;;;9.27;3.28;;;;;;;21.26;73.53;100255.28;4995258;28;20046;-68
2022/09/13 06:28:37;;;;;;;11.02;3.75;;;;;;;21.36;71.39;100262.91;4993593;28;20425;-68
2022/09/13 06:31:10;;;;;;;11.32;3.55;;;;;;;21.46;71.19;100256.56;4994128;28;20053;-67
2022/09/13 06:33:40;;;;;;;19.00;5.57;;;;;;;21.44;69.55;100261.75;4994537;28;20049;-67
2022/09/13 06:36:10;;;;;;;11.07;4.45;;;;;;;21.31;69.93;100249.31;4990834;28;20359;-68
2022/09/13 06:38:38;;;;;;;;;;;;;;;21.48;68.85;100242.13;4985295;28;20077;-70
2022/09/13 06:41:07;;;;;;;8.88;3.40;;;;;;;21.62;68.68;100239.34;4991196;28;20388;-69
2022/09/13 06:43:35;;;;;;;13.00;3.65;;;;;;;21.59;68.51;100226.13;4975146;28;20046;-70
2022/09/13 06:46:12;;;;;;;12.52;3.38;;;;;;;21.51;65.87;100232.94;4987874;28;20046;-69
2022/09/13 06:48:41;;;;;;;9.43;3.30;;;;;;;21.66;64.75;100226.94;4989997;28;20049;-71
2022/09/13 06:51:11;;;;;;;14.45;3.90;;;;;;;21.55;65.14;100230.94;4989688;28;20046;-70
2022/09/13 06:53:40;;;;;;;14.20;3.17;;;;;;;21.57;64.65;100215.31;5021178;28;20047;-69
2022/09/13 06:56:07;;;;;;;11.35;3.25;;;;;;;21.47;65.17;100204.91;5006791;28;20410;-69
2022/09/13 06:58:35;;;;;;;14.00;3.78;;;;;;;21.15;66.09;100198.44;5017498;28;20050;-69
2022/09/13 07:01:24;;;;;;;10.15;4.05;;;;;;;21.35;66.06;100201.69;4994078;28;20058;-72
2022/09/13 07:03:54;;;;;;;15.48;4.68;;;;;;;21.46;65.90;100199.69;4993317;28;20050;-66
2022/09/13 07:06:27;;;;;;;24.05;4.80;;;;;;;21.25;65.90;100201.25;4996141;28;20520;-66
2022/09/13 07:08:55;;;;;;;12.82;4.13;;;;;;;21.38;65.10;100198.06;4990032;28;20054;-68
2022/09/13 07:11:25;;;;;;;20.20;4.50;;;;;;;21.51;64.98;100193.69;4996834;28;20050;-70
2022/09/13 07:13:55;;;;;;;20.63;4.68;;;;;;;21.57;63.96;100190.09;4999114;28;20046;-67
2022/09/13 07:16:26;;;;;;;10.82;4.28;;;;;;;21.61;63.60;100178.88;4995038;28;20489;-68
2022/09/13 07:19:06;;;;;;;15.40;3.65;;;;;;;21.54;63.47;100178.88;4995632;28;20057;-68
2022/09/13 07:21:34;;;;;;;19.10;3.92;;;;;;;21.48;63.49;100177.69;4994790;28;20049;-68
2022/09/13 07:24:02;;;;;;;17.00;3.88;;;;;;;21.48;63.45;100178.47;4995630;28;20046;-69
2022/09/13 07:26:30;;;;;;;13.57;2.63;;;;;;;21.46;63.41;100177.28;4994821;28;20046;-68
2022/09/13 07:29:00;;;;;;;21.55;3.50;;;;;;;21.85;62.67;100173.28;4993557;28;20062;-69
2022/09/13 07:31:33;;;;;;;9.35;3.33;;;;;;;21.89;62.13;100176.09;4989505;28;20514;-68
2022/09/13 07:34:06;;;;;;;12.93;2.90;;;;;;;22.13;61.38;100180.84;4995554;28;20061;-67
2022/09/13 07:36:35;;;;;;;9.93;3.17;;;;;;;22.07;61.51;100185.28;4994069;28;20062;-68
2022/09/13 07:39:03;;;;;;;9.57;3.60;;;;;;;22.25;60.84;100181.22;4983861;28;20502;-67
2022/09/13 07:41:32;;;;;;;11.40;2.92;;;;;;;22.27;60.47;100181.63;4992328;28;20057;-67
2022/09/13 07:44:00;;;;;;;15.15;3.30;;;;;;;22.25;60.52;100186.03;4990242;28;20050;-66
2022/09/13 07:46:31;;;;;;;8.52;2.97;;;;;;;22.45;60.55;100184.38;4990854;28;20494;-66
2022/09/13 07:49:00;;;;;;;13.82;3.15;;;;;;;22.73;59.67;100180.69;4997828;28;20046;-67
2022/09/13 07:51:29;;;;;;;13.15;3.00;;;;;;;22.75;59.38;100184.66;4994537;28;20042;-67
2022/09/13 07:53:59;;;;;;;11.40;3.38;;;;;;;22.62;59.82;100186.34;5028163;28;20038;-66
2022/09/13 07:56:28;;;;;;;11.75;2.97;;;;;;;22.78;59.44;100188.69;4995204;28;20050;-66
2022/09/13 07:58:59;;;;;;;13.18;3.13;;;;;;;22.98;59.24;100181.38;4998851;28;20046;-67
2022/09/13 08:01:29;;;;;;;12.77;3.28;;;;;;;23.03;58.44;100184.53;4992531;28;20425;-66
2022/09/13 08:04:01;;;;;;;11.07;3.20;;;;;;;22.82;58.74;100189.47;4996906;28;20063;-65
2022/09/13 08:06:32;;;;;;;9.55;2.58;;;;;;;22.99;58.42;100191.41;4995730;28;20465;-67
2022/09/13 08:08:59;;;;;;;9.43;2.55;;;;;;;23.03;58.29;100192.19;4992085;28;20050;-68
2022/09/13 08:11:30;;;;;;;14.73;3.33;;;;;;;23.27;57.57;100183.59;4994245;28;20050;-67
2022/09/13 08:13:58;;;;;;;;;;;;;;;23.41;56.97;100191.16;4978925;28;20047;-67
2022/09/13 08:16:26;;;;;;;20.77;3.08;;;;;;;23.64;56.11;100184.97;4996745;28;19926;-67
2022/09/13 08:18:55;;;;;;;12.45;3.33;;;;;;;23.73;55.65;100182.47;5009999;28;20419;-67
2022/09/13 08:21:24;;;;;;;17.48;3.22;;;;;;;23.63;55.72;100177.72;4996235;28;20057;-67
2022/09/13 08:23:55;;;;;;;15.48;3.30;;;;;;;23.75;55.87;100175.22;4993992;28;20050;-67
2022/09/13 08:26:23;;;;;;;13.10;3.40;;;;;;;23.93;55.51;100167.41;4992910;28;20065;-67
2022/09/13 08:28:58;;;;;;;11.93;3.05;;;;;;;23.78;55.70;100174.38;4996347;28;20050;-68
2022/09/13 08:31:26;;;;;;;9.63;2.67;;;;;;;23.54;55.92;100185.84;4996003;28;20055;-67
2022/09/13 08:33:54;;;;;;;13.15;2.97;;;;;;;23.74;55.25;100172.81;4993221;28;20047;-68
2022/09/13 08:36:24;;;;;;;17.35;3.42;;;;;;;23.77;55.00;100191.66;4989129;28;20051;-70
2022/09/13 08:38:53;;;;;;;11.97;3.57;;;;;;;23.79;55.06;100184.41;4987565;28;20062;-70
2022/09/13 08:41:38;;;;;;;10.63;3.60;;;;;;;23.81;54.70;100196.06;4990222;28;20062;-68
2022/09/13 08:44:12;;;;;;;12.32;2.40;;;;;;;23.83;54.52;100196.44;4993091;28;20045;-69
2022/09/13 08:46:42;;;;;;;11.68;2.83;;;;;;;24.03;54.08;100203.13;4992782;28;20081;-68
2022/09/13 08:49:29;;;;;;;10.18;3.22;;;;;;;24.13;53.63;100216.28;4992462;28;20498;-69
2022/09/13 08:52:30;;;;;;;15.20;3.90;;;;;;;24.12;53.71;100211.06;4976429;28;20057;-69
2022/09/13 08:55:01;;;;;;;19.30;3.08;;;;;;;24.12;53.75;100220.31;5002834;28;20054;-66
2022/09/13 08:57:39;;;;;;;15.00;2.90;;;;;;;24.14;53.63;100217.09;4991297;28;20050;-67
2022/09/13 09:00:54;;;;;;;14.02;2.97;;;;;;;23.98;54.38;100220.41;4987550;28;20053;-66
2022/09/13 09:03:28;;;;;;;11.32;3.28;;;;;;;24.05;54.75;100228.81;4968627;28;20051;-67
2022/09/13 09:05:56;;;;;;;12.98;3.10;;;;;;;24.18;54.68;100226.28;5020201;28;20061;-67
2022/09/13 09:08:41;;;;;;;15.75;3.33;;;;;;;23.99;54.93;100216.41;4995527;28;20058;-69
2022/09/13 09:11:17;;;;;;;14.45;2.67;;;;;;;24.08;54.46;100221.56;5004992;28;20422;-69
2022/09/13 09:14:05;;;;;;;9.57;2.50;;;;;;;24.37;54.27;100242.59;4994715;28;20047;-68
2022/09/13 09:16:35;;;;;;;5.95;2.22;;;;;;;23.85;55.27;100249.47;4976683;28;20081;-68
2022/09/13 09:19:26;;;;;;;9.43;2.25;;;;;;;23.96;54.66;100233.28;5000737;28;20058;-68
2022/09/13 09:21:53;;;;;;;;;;;;;;;24.10;54.89;100245.25;4994081;28;20058;-68
2022/09/13 09:24:22;;;;;;;10.80;2.40;;;;;;;23.78;56.78;100244.69;4996834;28;19921;-68
2022/09/13 09:26:53;;;;;;;10.47;2.23;;;;;;;23.83;57.69;100249.91;4992941;28;21016;-68
2022/09/13 09:29:26;;;;;;;9.90;2.55;;;;;;;23.87;57.89;100239.41;4977459;28;20297;-68
2022/09/13 09:32:19;;;;;;;10.02;3.30;;;;;;;24.08;57.69;100236.44;4988087;28;20050;-69
2022/09/13 09:35:11;;;;;;;9.93;3.45;;;;;;;24.04;58.02;100234.88;4991158;28;20042;-68
2022/09/13 09:37:40;;;;;;;11.13;3.30;;;;;;;23.93;58.42;100236.94;4989578;28;20053;-69
2022/09/13 09:40:11;;;;;;;12.30;2.65;;;;;;;24.16;58.33;100246.41;4991987;28;20050;-68
2022/09/13 09:42:44;;;;;;;13.90;2.85;;;;;;;23.97;58.54;100252.56;4992393;28;20046;-68
2022/09/13 09:45:34;;;;;;;12.30;2.67;;;;;;;23.97;59.50;100255.38;4993309;28;20045;-69
2022/09/13 09:48:06;;;;;;;8.18;2.55;;;;;;;24.10;59.53;100253.69;4994525;28;20114;-68
2022/09/13 09:50:42;;;;;;;19.58;4.72;;;;;;;24.24;59.29;100255.56;4994456;28;20051;-68
2022/09/13 09:53:25;;;;;;;24.65;4.05;;;;;;;24.31;59.09;100253.50;5021794;28;20050;-69
2022/09/13 09:56:18;;;;;;;49.15;7.97;;;;;;;24.35;59.23;100259.09;4989491;28;20046;-66
2022/09/13 09:58:46;;;;;;;39.63;6.95;;;;;;;24.38;59.79;100253.44;4990763;28;20046;-69
2022/09/13 10:01:33;;;;;;;28.92;5.07;;;;;;;24.36;59.54;100261.50;4994841;28;20061;-69
2022/09/13 10:04:09;;;;;;;17.13;3.47;;;;;;;23.88;60.70;100257.88;4989664;28;20055;-68
2022/09/13 10:06:40;;;;;;;55.85;6.20;;;;;;;24.10;60.49;100256.50;4992719;28;20498;-69
2022/09/13 10:09:23;;;;;;;102.20;13.07;;;;;;;24.26;60.07;100256.78;4995928;28;20513;-68
2022/09/13 10:11:58;;;;;;;18.35;3.63;;;;;;;24.11;59.47;100248.88;5004492;28;20066;-68
2022/09/13 10:14:38;;;;;;;10.48;3.55;;;;;;;24.53;58.17;100248.44;4990968;28;20057;-67
2022/09/13 10:17:23;;;;;;;12.10;3.05;;;;;;;24.48;57.94;100249.69;4988371;28;20178;-68
2022/09/13 10:20:02;;;;;;;11.40;3.00;;;;;;;24.38;58.12;100259.06;5017475;28;20055;-68
2022/09/13 10:22:31;;;;;;;11.48;2.85;;;;;;;24.40;57.47;100253.81;5000821;28;20054;-68
2022/09/13 10:25:21;;;;;;;7.28;2.92;;;;;;;24.30;57.36;100251.09;4992449;28;20396;-68
2022/09/13 10:27:51;;;;;;;9.23;2.67;;;;;;;24.41;56.81;100254.59;4993251;28;20514;-68
2022/09/13 10:30:41;;;;;;;12.02;2.70;;;;;;;24.47;55.76;100248.13;4988183;28;20081;-67
2022/09/13 10:33:27;;;;;;;9.57;2.58;;;;;;;24.37;55.10;100249.00;4986291;28;20051;-69
2022/09/13 10:35:57;;;;;;;8.25;2.85;;;;;;;24.37;55.11;100248.22;4990077;28;20039;-69
2022/09/13 10:38:33;;;;;;;6.85;2.20;;;;;;;24.36;54.67;100247.41;4991506;28;20050;-70
2022/09/13 10:41:05;;;;;;;5.35;2.22;;;;;;;24.31;55.90;100247.06;4991074;28;20066;-69
2022/09/13 10:43:33;;;;;;;7.15;3.15;;;;;;;24.28;56.04;100239.47;4990564;28;20408;-69
2022/09/13 10:46:03;;;;;;;10.75;2.47;;;;;;;24.31;55.18;100236.59;4992585;28;20038;-68
2022/09/13 10:48:43;;;;;;;5.90;2.03;;;;;;;24.22;55.79;100225.03;4992998;28;20042;-68
2022/09/13 10:51:42;;;;;;;12.18;2.03;;;;;;;24.14;55.54;100222.72;4992151;28;20046;-68
2022/09/13 10:54:19;;;;;;;9.63;2.10;;;;;;;24.16;55.82;100223.09;4993358;28;20051;-68
2022/09/13 10:56:47;;;;;;;6.43;1.95;;;;;;;24.25;55.60;100229.03;4991687;28;20050;-69
2022/09/13 10:59:19;;;;;;;6.63;1.80;;;;;;;24.36;55.36;100224.09;4974141;28;20046;-69
2022/09/13 11:02:09;;;;;;;7.18;2.13;;;;;;;24.62;54.42;100220.56;4986335;28;20054;-70
2022/09/13 11:04:51;;;;;;;10.25;2.30;;;;;;;24.54;54.33;100213.44;4992073;28;20055;-69
2022/09/13 11:07:32;;;;;;;7.22;2.15;;;;;;;24.96;53.86;100212.13;4991993;28;20180;-68
2022/09/13 11:10:28;;;;;;;4.85;1.90;;;;;;;25.08;53.28;100222.84;4985371;28;20058;-68
2022/09/13 11:13:20;;;;;;;11.57;2.53;;;;;;;25.12;53.39;100220.78;4990977;28;20042;-69
2022/09/13 11:16:23;;;;;;;5.03;2.13;;;;;;;25.28;53.31;100212.50;4975309;28;20079;-69
2022/09/13 11:19:08;;;;;;;10.38;2.53;;;;;;;25.37;52.34;100215.59;4958630;28;20069;-70
2022/09/13 11:22:13;;;;;;;6.70;2.13;;;;;;;25.33;52.44;100212.81;4987303;28;20042;-69
2022/09/13 11:24:55;;;;;;;8.77;2.83;;;;;;;25.25;52.29;100208.50;4994780;28;20054;-69
2022/09/13 11:27:38;;;;;;;9.18;2.47;;;;;;;25.23;52.31;100204.50;4993036;28;20046;-68
2022/09/13 11:30:15;;;;;;;8.70;2.47;;;;;;;25.19;52.51;100200.94;4994417;28;20046;-69
2022/09/13 11:33:06;;;;;;;10.50;2.47;;;;;;;24.90;52.67;100199.72;4991073;28;20077;-67
2022/09/13 11:36:09;;;;;;;4.35;2.08;;;;;;;25.07;51.66;100199.50;4996198;28;20050;-67
2022/09/13 11:38:46;;;;;;;5.82;1.77;;;;;;;25.19;52.16;100201.72;4998062;28;20411;-69
2022/09/13 11:41:27;;;;;;;6.45;2.00;;;;;;;25.10;51.94;100203.50;4993074;28;20065;-68
2022/09/13 11:43:54;;;;;;;5.65;2.03;;;;;;;25.14;52.07;100207.84;4993468;28;20059;-69
2022/09/13 11:46:44;;;;;;;6.32;2.40;;;;;;;25.10;51.78;100204.31;4991010;28;20573;-68
2022/09/13 11:49:47;;;;;;;8.68;2.17;;;;;;;25.22;51.68;100194.47;4983465;28;20084;-67
2022/09/13 11:52:36;;;;;;;4.82;2.05;;;;;;;25.27;51.22;100186.31;4994820;28;20070;-67
2022/09/13 11:55:17;;;;;;;7.57;2.10;;;;;;;25.19;52.03;100184.03;4995847;28;20437;-69
2022/09/13 11:57:52;;;;;;;5.85;1.88;;;;;;;25.19;51.79;100175.59;4997543;28;20054;-68